createdAt,value
2017-11-08T00:00:05.327Z,849.71
2017-11-08T00:01:05.194Z,849.75
2017-11-08T00:02:05.064Z,849.71
2017-11-08T00:03:04.936Z,849.75
2017-11-08T00:04:04.810Z,849.72
2017-11-08T00:05:04.684Z,849.74
2017-11-08T00:06:04.557Z,849.72
2017-11-08T00:07:04.427Z,849.73
2017-11-08T00:08:04.300Z,849.73
2017-11-08T00:09:04.172Z,849.73
2017-11-08T00:10:04.045Z,849.73
2017-11-08T00:11:03.919Z,849.77
2017-11-08T00:12:03.795Z,849.75
2017-11-08T00:13:03.663Z,849.77
2017-11-08T00:14:03.537Z,849.78
2017-11-08T00:15:03.408Z,849.80
2017-11-08T00:16:03.282Z,849.72
2017-11-08T00:17:03.157Z,849.74
2017-11-08T00:18:03.029Z,849.75
2017-11-08T00:19:02.898Z,849.76
2017-11-08T00:20:02.772Z,849.78
2017-11-08T00:21:02.645Z,849.81
2017-11-08T00:22:02.518Z,849.78
2017-11-08T00:23:02.389Z,849.80
2017-11-08T00:24:02.264Z,849.82
2017-11-08T00:25:02.137Z,849.82
2017-11-08T00:26:02.008Z,849.81
2017-11-08T00:27:01.884Z,849.85
2017-11-08T00:28:01.753Z,849.81
2017-11-08T00:29:01.628Z,849.80
2017-11-08T00:30:01.517Z,849.81
2017-11-08T00:31:01.371Z,849.85
2017-11-08T00:32:01.249Z,849.85
2017-11-08T00:33:01.118Z,849.83
2017-11-08T00:34:00.991Z,849.84
2017-11-08T00:35:00.863Z,849.88
2017-11-08T00:36:00.735Z,849.88
2017-11-08T00:37:00.609Z,849.85
2017-11-08T00:38:00.481Z,849.85
2017-11-08T00:39:00.361Z,849.85
2017-11-08T00:40:02.931Z,849.86
2017-11-08T00:41:00.100Z,849.84
2017-11-08T00:41:59.974Z,849.86
2017-11-08T00:42:59.845Z,849.86
2017-11-08T00:43:59.715Z,849.89
2017-11-08T00:44:59.589Z,849.88
2017-11-08T00:45:59.462Z,849.89
2017-11-08T00:46:59.333Z,849.84
2017-11-08T00:47:59.205Z,849.89
2017-11-08T00:48:59.081Z,849.88
2017-11-08T00:49:58.952Z,849.86
2017-11-08T00:50:58.825Z,849.90
2017-11-08T00:51:58.697Z,849.90
2017-11-08T00:52:58.571Z,849.90
2017-11-08T00:53:58.442Z,849.89
2017-11-08T00:54:58.313Z,849.89
2017-11-08T00:55:58.187Z,849.90
2017-11-08T00:56:58.060Z,849.88
2017-11-08T00:57:57.932Z,849.87
2017-11-08T00:58:57.804Z,849.86
2017-11-08T00:59:57.677Z,849.83
2017-11-08T01:00:57.549Z,849.83
2017-11-08T01:01:57.422Z,849.87
2017-11-08T01:02:57.296Z,849.84
2017-11-08T01:03:57.168Z,849.86
2017-11-08T01:04:57.041Z,849.80
2017-11-08T01:05:56.915Z,849.83
2017-11-08T01:06:56.787Z,849.84
2017-11-08T01:07:56.660Z,849.84
2017-11-08T01:08:56.531Z,849.86
2017-11-08T01:09:56.404Z,849.86
2017-11-08T01:10:56.276Z,849.81
2017-11-08T01:11:56.149Z,849.81
2017-11-08T01:12:56.022Z,849.82
2017-11-08T01:13:55.896Z,849.80
2017-11-08T01:14:55.769Z,849.80
2017-11-08T01:15:55.642Z,849.80
2017-11-08T01:16:55.515Z,849.79
2017-11-08T01:17:55.386Z,849.79
2017-11-08T01:18:55.260Z,849.79
2017-11-08T01:19:55.132Z,849.79
2017-11-08T01:20:55.006Z,849.79
2017-11-08T01:21:54.878Z,849.76
2017-11-08T01:22:54.751Z,849.75
2017-11-08T01:23:54.623Z,849.76
2017-11-08T01:24:54.496Z,849.75
2017-11-08T01:25:54.368Z,849.74
2017-11-08T01:26:54.246Z,849.73
2017-11-08T01:27:54.114Z,849.74
2017-11-08T01:28:53.986Z,849.72
2017-11-08T01:29:53.860Z,849.72
2017-11-08T01:30:53.734Z,849.71
2017-11-08T01:31:53.606Z,849.70
2017-11-08T01:32:53.479Z,849.71
2017-11-08T01:33:53.352Z,849.71
2017-11-08T01:34:53.223Z,849.70
2017-11-08T01:35:53.097Z,849.67
2017-11-08T01:36:52.969Z,849.69
2017-11-08T01:37:52.843Z,849.71
2017-11-08T01:38:52.712Z,849.67
2017-11-08T01:39:52.587Z,849.68
2017-11-08T01:40:52.461Z,849.68
2017-11-08T01:41:52.332Z,849.67
2017-11-08T01:42:52.205Z,849.68
2017-11-08T01:43:52.080Z,849.66
2017-11-08T01:44:51.951Z,849.63
2017-11-08T01:45:51.824Z,849.62
2017-11-08T01:46:51.698Z,849.63
2017-11-08T01:47:51.569Z,849.64
2017-11-08T01:48:51.442Z,849.65
2017-11-08T01:49:51.314Z,849.63
2017-11-08T01:50:51.188Z,849.63
2017-11-08T01:51:51.063Z,849.66
2017-11-08T01:52:50.934Z,849.66
2017-11-08T01:53:50.807Z,849.64
2017-11-08T01:54:50.678Z,849.65
2017-11-08T01:55:50.551Z,849.68
2017-11-08T01:56:50.422Z,849.68
2017-11-08T01:57:50.297Z,849.68
2017-11-08T01:58:50.167Z,849.71
2017-11-08T01:59:50.917Z,849.72
2017-11-08T02:00:49.914Z,849.72
2017-11-08T02:01:49.795Z,849.69
2017-11-08T02:02:49.657Z,849.69
2017-11-08T02:03:49.535Z,849.66
2017-11-08T02:04:49.407Z,849.67
2017-11-08T02:05:49.280Z,849.67
2017-11-08T02:06:49.150Z,849.69
2017-11-08T02:07:49.025Z,849.69
2017-11-08T02:08:48.897Z,849.68
2017-11-08T02:09:48.770Z,849.65
2017-11-08T02:10:48.643Z,849.67
2017-11-08T02:11:48.513Z,849.69
2017-11-08T02:12:48.388Z,849.68
2017-11-08T02:13:48.259Z,849.68
2017-11-08T02:14:48.130Z,849.66
2017-11-08T02:15:48.007Z,849.65
2017-11-08T02:16:47.879Z,849.67
2017-11-08T02:17:47.751Z,849.63
2017-11-08T02:18:47.626Z,849.67
2017-11-08T02:19:47.498Z,849.65
2017-11-08T02:20:47.369Z,849.68
2017-11-08T02:21:47.242Z,849.70
2017-11-08T02:22:47.116Z,849.66
2017-11-08T02:23:46.988Z,849.70
2017-11-08T02:24:46.859Z,849.67
2017-11-08T02:25:46.733Z,849.65
2017-11-08T02:26:46.602Z,849.68
2017-11-08T02:27:46.478Z,849.69
2017-11-08T02:28:46.937Z,849.70
2017-11-08T02:29:46.225Z,849.67
2017-11-08T02:30:46.097Z,849.65
2017-11-08T02:31:45.995Z,849.64
2017-11-08T02:32:45.844Z,849.63
2017-11-08T02:33:45.714Z,849.64
2017-11-08T02:34:45.587Z,849.67
2017-11-08T02:35:45.464Z,849.61
2017-11-08T02:36:45.336Z,849.64
2017-11-08T02:37:45.206Z,849.66
2017-11-08T02:38:45.080Z,849.68
2017-11-08T02:39:44.949Z,849.66
2017-11-08T02:40:44.825Z,849.64
2017-11-08T02:41:44.696Z,849.64
2017-11-08T02:42:44.568Z,849.64
2017-11-08T02:43:44.441Z,849.70
2017-11-08T02:44:44.315Z,849.70
2017-11-08T02:45:44.188Z,849.70
2017-11-08T02:46:44.061Z,849.68
2017-11-08T02:47:43.933Z,849.69
2017-11-08T02:48:43.814Z,849.69
2017-11-08T02:49:43.678Z,849.68
2017-11-08T02:50:43.550Z,849.69
2017-11-08T02:51:43.423Z,849.66
2017-11-08T02:52:43.304Z,849.64
2017-11-08T02:53:43.173Z,849.65
2017-11-08T02:54:43.046Z,849.66
2017-11-08T02:55:42.918Z,849.65
2017-11-08T02:56:42.789Z,849.64
2017-11-08T02:57:42.960Z,849.67
2017-11-08T02:58:42.533Z,849.65
2017-11-08T02:59:42.408Z,849.63
2017-11-08T03:00:42.278Z,849.63
2017-11-08T03:01:42.152Z,849.67
2017-11-08T03:02:42.023Z,849.63
2017-11-08T03:03:41.899Z,849.66
2017-11-08T03:04:41.773Z,849.66
2017-11-08T03:05:41.647Z,849.66
2017-11-08T03:06:41.516Z,849.65
2017-11-08T03:07:41.398Z,849.65
2017-11-08T03:08:41.264Z,849.63
2017-11-08T03:09:41.135Z,849.66
2017-11-08T03:10:41.008Z,849.61
2017-11-08T03:11:40.881Z,849.61
2017-11-08T03:12:40.757Z,849.62
2017-11-08T03:13:40.627Z,849.59
2017-11-08T03:14:40.498Z,849.60
2017-11-08T03:15:40.373Z,849.60
2017-11-08T03:16:40.251Z,849.57
2017-11-08T03:17:40.121Z,849.56
2017-11-08T03:18:41.956Z,849.55
2017-11-08T03:19:39.867Z,849.54
2017-11-08T03:20:39.738Z,849.58
2017-11-08T03:21:39.610Z,849.56
2017-11-08T03:22:42.457Z,849.58
2017-11-08T03:23:39.356Z,849.56
2017-11-08T03:24:39.229Z,849.52
2017-11-08T03:25:39.101Z,849.50
2017-11-08T03:26:38.975Z,849.54
2017-11-08T03:27:38.847Z,849.57
2017-11-08T03:28:38.722Z,849.53
2017-11-08T03:29:38.598Z,849.55
2017-11-08T03:30:38.473Z,849.51
2017-11-08T03:31:38.338Z,849.50
2017-11-08T03:32:38.212Z,849.52
2017-11-08T03:33:38.088Z,849.51
2017-11-08T03:34:37.958Z,849.50
2017-11-08T03:35:37.832Z,849.50
2017-11-08T03:36:37.704Z,849.53
2017-11-08T03:37:37.575Z,849.51
2017-11-08T03:38:37.448Z,849.47
2017-11-08T03:39:37.324Z,849.49
2017-11-08T03:40:37.198Z,849.51
2017-11-08T03:41:37.069Z,849.52
2017-11-08T03:42:36.942Z,849.49
2017-11-08T03:43:36.818Z,849.48
2017-11-08T03:44:36.686Z,849.49
2017-11-08T03:45:36.560Z,849.50
2017-11-08T03:46:36.435Z,849.51
2017-11-08T03:47:36.307Z,849.51
2017-11-08T03:48:36.179Z,849.49
2017-11-08T03:49:36.053Z,849.47
2017-11-08T03:50:35.925Z,849.48
2017-11-08T03:51:35.795Z,849.49
2017-11-08T03:52:35.670Z,849.48
2017-11-08T03:53:35.544Z,849.46
2017-11-08T03:54:35.413Z,849.49
2017-11-08T03:55:37.962Z,849.47
2017-11-08T03:56:35.164Z,849.47
2017-11-08T03:57:35.043Z,849.52
2017-11-08T03:58:34.907Z,849.48
2017-11-08T03:59:34.781Z,849.51
2017-11-08T04:00:34.653Z,849.50
2017-11-08T04:01:34.526Z,849.50
2017-11-08T04:02:34.399Z,849.50
2017-11-08T04:03:34.272Z,849.53
2017-11-08T04:04:34.145Z,849.54
2017-11-08T04:05:34.018Z,849.56
2017-11-08T04:06:33.890Z,849.54
2017-11-08T04:07:33.763Z,849.53
2017-11-08T04:08:33.636Z,849.49
2017-11-08T04:09:35.474Z,849.52
2017-11-08T04:10:33.381Z,849.52
2017-11-08T04:11:33.255Z,849.52
2017-11-08T04:12:33.132Z,849.53
2017-11-08T04:13:33.000Z,849.51
2017-11-08T04:14:32.876Z,849.48
2017-11-08T04:15:32.746Z,849.51
2017-11-08T04:16:32.622Z,849.46
2017-11-08T04:17:32.495Z,849.50
2017-11-08T04:18:32.366Z,849.49
2017-11-08T04:19:32.240Z,849.48
2017-11-08T04:20:32.111Z,849.48
2017-11-08T04:21:31.983Z,849.49
2017-11-08T04:22:31.858Z,849.51
2017-11-08T04:23:31.730Z,849.46
2017-11-08T04:24:31.604Z,849.48
2017-11-08T04:25:31.477Z,849.49
2017-11-08T04:26:31.349Z,849.46
2017-11-08T04:27:31.229Z,849.48
2017-11-08T04:28:31.095Z,849.52
2017-11-08T04:29:30.969Z,849.50
2017-11-08T04:30:30.842Z,849.47
2017-11-08T04:31:30.716Z,849.51
2017-11-08T04:32:30.588Z,849.52
2017-11-08T04:33:30.460Z,849.51
2017-11-08T04:34:30.333Z,849.51
2017-11-08T04:35:30.205Z,849.54
2017-11-08T04:36:32.970Z,849.53
2017-11-08T04:37:29.951Z,849.54
2017-11-08T04:38:29.822Z,849.54
2017-11-08T04:39:29.698Z,849.60
2017-11-08T04:40:29.570Z,849.57
2017-11-08T04:41:29.443Z,849.57
2017-11-08T04:42:29.317Z,849.57
2017-11-08T04:43:29.188Z,849.59
2017-11-08T04:44:29.061Z,849.60
2017-11-08T04:45:28.935Z,849.61
2017-11-08T04:46:28.812Z,849.62
2017-11-08T04:47:28.680Z,849.60
2017-11-08T04:48:28.552Z,849.60
2017-11-08T04:49:28.426Z,849.58
2017-11-08T04:50:28.302Z,849.59
2017-11-08T04:51:28.172Z,849.63
2017-11-08T04:52:28.049Z,849.64
2017-11-08T04:53:27.920Z,849.66
2017-11-08T04:54:27.789Z,849.63
2017-11-08T04:55:27.665Z,849.70
2017-11-08T04:56:27.537Z,849.65
2017-11-08T04:57:27.411Z,849.69
2017-11-08T04:58:27.280Z,849.70
2017-11-08T04:59:27.154Z,849.71
2017-11-08T05:00:27.045Z,849.75
2017-11-08T05:01:26.899Z,849.75
2017-11-08T05:02:26.772Z,849.75
2017-11-08T05:03:26.669Z,849.73
2017-11-08T05:04:26.521Z,849.72
2017-11-08T05:05:26.403Z,849.74
2017-11-08T05:06:26.271Z,849.74
2017-11-08T05:07:26.141Z,849.75
2017-11-08T05:08:26.014Z,849.73
2017-11-08T05:09:25.883Z,849.77
2017-11-08T05:10:25.756Z,849.76
2017-11-08T05:11:25.629Z,849.81
2017-11-08T05:12:25.588Z,849.81
2017-11-08T05:13:25.376Z,849.81
2017-11-08T05:14:25.265Z,849.84
2017-11-08T05:15:25.118Z,849.85
2017-11-08T05:16:24.996Z,849.82
2017-11-08T05:17:24.864Z,849.84
2017-11-08T05:18:24.736Z,849.89
2017-11-08T05:19:24.608Z,849.89
2017-11-08T05:20:24.482Z,849.91
2017-11-08T05:21:24.354Z,849.90
2017-11-08T05:22:24.226Z,849.94
2017-11-08T05:23:25.006Z,849.93
2017-11-08T05:24:23.971Z,849.95
2017-11-08T05:25:23.885Z,849.96
2017-11-08T05:26:23.715Z,849.98
2017-11-08T05:27:23.588Z,849.95
2017-11-08T05:28:23.461Z,850.00
2017-11-08T05:29:23.335Z,850.02
2017-11-08T05:30:23.205Z,850.04
2017-11-08T05:31:23.081Z,850.00
2017-11-08T05:32:22.947Z,849.99
2017-11-08T05:33:22.822Z,850.01
2017-11-08T05:34:22.691Z,850.02
2017-11-08T05:35:24.477Z,850.01
2017-11-08T05:36:22.439Z,850.04
2017-11-08T05:37:22.311Z,849.99
2017-11-08T05:38:22.180Z,850.02
2017-11-08T05:39:22.052Z,850.04
2017-11-08T05:40:21.926Z,850.05
2017-11-08T05:41:21.803Z,850.07
2017-11-08T05:42:21.668Z,850.02
2017-11-08T05:43:21.546Z,850.06
2017-11-08T05:44:21.418Z,850.09
2017-11-08T05:45:21.287Z,850.06
2017-11-08T05:46:21.155Z,850.09
2017-11-08T05:47:21.027Z,850.10
2017-11-08T05:48:20.899Z,850.08
2017-11-08T05:49:20.777Z,850.12
2017-11-08T05:50:20.646Z,850.09
2017-11-08T05:51:20.515Z,850.08
2017-11-08T05:52:21.017Z,850.12
2017-11-08T05:53:20.261Z,850.14
2017-11-08T05:54:20.134Z,850.15
2017-11-08T05:55:20.005Z,850.14
2017-11-08T05:56:19.879Z,850.13
2017-11-08T05:57:19.761Z,850.18
2017-11-08T05:58:19.622Z,850.12
2017-11-08T05:59:19.495Z,850.12
2017-11-08T06:00:19.372Z,850.14
2017-11-08T06:01:19.237Z,850.15
2017-11-08T06:02:19.116Z,850.20
2017-11-08T06:03:18.982Z,850.20
2017-11-08T06:04:18.856Z,850.24
2017-11-08T06:05:18.737Z,850.22
2017-11-08T06:06:18.609Z,850.25
2017-11-08T06:07:18.470Z,850.26
2017-11-08T06:08:18.353Z,850.25
2017-11-08T06:09:18.217Z,850.28
2017-11-08T06:10:18.085Z,850.27
2017-11-08T06:11:17.960Z,850.29
2017-11-08T06:12:17.830Z,850.29
2017-11-08T06:13:17.709Z,850.32
2017-11-08T06:14:17.575Z,850.29
2017-11-08T06:15:17.446Z,850.33
2017-11-08T06:16:17.321Z,850.32
2017-11-08T06:17:17.191Z,850.30
2017-11-08T06:18:17.062Z,850.34
2017-11-08T06:19:16.938Z,850.35
2017-11-08T06:20:16.809Z,850.37
2017-11-08T06:21:17.040Z,850.38
2017-11-08T06:22:16.556Z,850.40
2017-11-08T06:23:16.445Z,850.40
2017-11-08T06:24:16.295Z,850.41
2017-11-08T06:25:16.171Z,850.40
2017-11-08T06:26:16.054Z,850.37
2017-11-08T06:27:15.913Z,850.42
2017-11-08T06:28:15.803Z,850.43
2017-11-08T06:29:17.488Z,850.44
2017-11-08T06:30:15.530Z,850.44
2017-11-08T06:31:15.402Z,850.50
2017-11-08T06:32:15.274Z,850.50
2017-11-08T06:33:15.150Z,850.50
2017-11-08T06:34:15.029Z,850.52
2017-11-08T06:35:14.888Z,850.53
2017-11-08T06:36:14.761Z,850.52
2017-11-08T06:37:14.635Z,850.54
2017-11-08T06:38:14.514Z,850.51
2017-11-08T06:39:14.378Z,850.52
2017-11-08T06:40:14.251Z,850.53
2017-11-08T06:41:14.121Z,850.53
2017-11-08T06:42:13.993Z,850.55
2017-11-08T06:43:13.871Z,850.56
2017-11-08T06:44:13.737Z,850.55
2017-11-08T06:45:13.620Z,850.56
2017-11-08T06:46:13.483Z,850.60
2017-11-08T06:47:13.354Z,850.56
2017-11-08T06:48:13.228Z,850.56
2017-11-08T06:49:13.101Z,850.57
2017-11-08T06:50:13.042Z,850.58
2017-11-08T06:51:12.845Z,850.60
2017-11-08T06:52:12.714Z,850.58
2017-11-08T06:53:12.588Z,850.60
2017-11-08T06:54:12.457Z,850.60
2017-11-08T06:55:12.334Z,850.63
2017-11-08T06:56:12.205Z,850.63
2017-11-08T06:57:12.078Z,850.65
2017-11-08T06:58:11.948Z,850.62
2017-11-08T06:59:11.820Z,850.64
2017-11-08T07:00:11.693Z,850.68
2017-11-08T07:01:11.563Z,850.68
2017-11-08T07:02:11.440Z,850.69
2017-11-08T07:03:11.310Z,850.70
2017-11-08T07:04:11.182Z,850.67
2017-11-08T07:05:11.054Z,850.73
2017-11-08T07:06:10.929Z,850.71
2017-11-08T07:07:10.798Z,850.73
2017-11-08T07:08:10.672Z,850.72
2017-11-08T07:09:10.547Z,850.74
2017-11-08T07:10:10.418Z,850.78
2017-11-08T07:11:10.287Z,850.78
2017-11-08T07:12:10.159Z,850.81
2017-11-08T07:13:10.032Z,850.78
2017-11-08T07:14:09.901Z,850.78
2017-11-08T07:15:09.777Z,850.80
2017-11-08T07:16:09.652Z,850.82
2017-11-08T07:17:09.523Z,850.80
2017-11-08T07:18:09.396Z,850.79
2017-11-08T07:19:09.266Z,850.83
2017-11-08T07:20:09.138Z,850.83
2017-11-08T07:21:09.013Z,850.83
2017-11-08T07:22:08.884Z,850.82
2017-11-08T07:23:08.757Z,850.83
2017-11-08T07:24:08.629Z,850.83
2017-11-08T07:25:08.502Z,850.84
2017-11-08T07:26:08.373Z,850.84
2017-11-08T07:27:08.245Z,850.85
2017-11-08T07:28:08.117Z,850.86
2017-11-08T07:29:07.990Z,850.86
2017-11-08T07:30:07.862Z,850.84
2017-11-08T07:31:07.745Z,850.86
2017-11-08T07:32:07.617Z,850.86
2017-11-08T07:33:07.482Z,850.86
2017-11-08T07:34:07.354Z,850.89
2017-11-08T07:35:07.225Z,850.89
2017-11-08T07:36:07.098Z,850.88
2017-11-08T07:37:06.969Z,850.88
2017-11-08T07:38:06.844Z,850.91
2017-11-08T07:39:06.716Z,850.90
2017-11-08T07:40:06.587Z,850.90
2017-11-08T07:41:06.460Z,850.93
2017-11-08T07:42:06.332Z,850.91
2017-11-08T07:43:06.205Z,850.89
2017-11-08T07:44:06.077Z,850.90
2017-11-08T07:45:05.951Z,850.87
2017-11-08T07:46:05.822Z,850.86
2017-11-08T07:47:05.696Z,850.89
2017-11-08T07:48:05.568Z,850.88
2017-11-08T07:49:05.459Z,850.88
2017-11-08T07:50:05.313Z,850.87
2017-11-08T07:51:05.191Z,850.88
2017-11-08T07:52:05.061Z,850.87
2017-11-08T07:53:04.932Z,850.89
2017-11-08T07:54:04.808Z,850.87
2017-11-08T07:55:06.501Z,850.89
2017-11-08T07:56:04.550Z,850.87
2017-11-08T07:57:04.422Z,850.89
2017-11-08T07:58:04.295Z,850.88
2017-11-08T07:59:04.168Z,850.89
2017-11-08T08:00:04.041Z,850.84
2017-11-08T08:01:03.913Z,850.87
2017-11-08T08:02:03.787Z,850.87
2017-11-08T08:03:03.660Z,850.85
2017-11-08T08:04:03.532Z,850.86
2017-11-08T08:05:03.413Z,850.85
2017-11-08T08:06:03.278Z,850.87
2017-11-08T08:07:03.157Z,850.84
2017-11-08T08:08:03.028Z,850.87
2017-11-08T08:09:02.900Z,850.87
2017-11-08T08:10:02.769Z,850.84
2017-11-08T08:11:02.641Z,850.85
2017-11-08T08:12:02.516Z,850.89
2017-11-08T08:13:02.388Z,850.84
2017-11-08T08:14:02.261Z,850.86
2017-11-08T08:15:02.135Z,850.87
2017-11-08T08:16:02.009Z,850.87
2017-11-08T08:17:01.882Z,850.87
2017-11-08T08:18:01.756Z,850.87
2017-11-08T08:19:01.627Z,850.85
2017-11-08T08:20:01.499Z,850.90
2017-11-08T08:21:01.372Z,850.92
2017-11-08T08:22:01.247Z,850.92
2017-11-08T08:23:01.119Z,850.93
2017-11-08T08:24:00.993Z,850.95
2017-11-08T08:25:00.865Z,850.96
2017-11-08T08:26:00.737Z,850.95
2017-11-08T08:27:00.610Z,850.93
2017-11-08T08:28:00.484Z,850.91
2017-11-08T08:29:00.360Z,850.92
2017-11-08T08:30:00.229Z,850.92
2017-11-08T08:31:00.113Z,850.93
2017-11-08T08:31:59.985Z,850.95
2017-11-08T08:32:59.853Z,850.97
2017-11-08T08:33:59.724Z,850.99
2017-11-08T08:34:59.597Z,850.98
2017-11-08T08:35:59.471Z,850.97
2017-11-08T08:36:59.343Z,850.99
2017-11-08T08:37:59.218Z,851.02
2017-11-08T08:38:59.095Z,851.02
2017-11-08T08:39:58.962Z,850.98
2017-11-08T08:40:58.837Z,851.03
2017-11-08T08:41:58.711Z,850.99
2017-11-08T08:42:58.585Z,850.97
2017-11-08T08:43:58.458Z,851.00
2017-11-08T08:44:58.332Z,851.02
2017-11-08T08:45:58.205Z,851.02
2017-11-08T08:46:59.056Z,851.00
2017-11-08T08:47:57.953Z,850.97
2017-11-08T08:48:57.829Z,851.02
2017-11-08T08:49:57.703Z,851.04
2017-11-08T08:50:57.578Z,851.02
2017-11-08T08:51:57.455Z,851.05
2017-11-08T08:52:57.328Z,851.06
2017-11-08T08:53:57.201Z,851.07
2017-11-08T08:54:57.077Z,851.08
2017-11-08T08:55:56.952Z,851.07
2017-11-08T08:56:56.827Z,851.13
2017-11-08T08:57:56.700Z,851.11
2017-11-08T08:58:56.577Z,851.17
2017-11-08T08:59:56.452Z,851.19
2017-11-08T09:00:56.332Z,851.19
2017-11-08T09:01:56.204Z,851.17
2017-11-08T09:02:56.084Z,851.17
2017-11-08T09:03:55.955Z,851.15
2017-11-08T09:04:57.523Z,851.17
2017-11-08T09:05:55.707Z,851.16
2017-11-08T09:06:55.587Z,851.17
2017-11-08T09:07:55.460Z,851.16
2017-11-08T09:08:55.337Z,851.15
2017-11-08T09:09:55.210Z,851.15
2017-11-08T09:10:55.088Z,851.15
2017-11-08T09:11:54.963Z,851.12
2017-11-08T09:12:54.840Z,851.16
2017-11-08T09:13:54.718Z,851.17
2017-11-08T09:14:54.593Z,851.19
2017-11-08T09:15:55.087Z,851.19
2017-11-08T09:16:54.346Z,851.22
2017-11-08T09:17:54.222Z,851.22
2017-11-08T09:18:54.098Z,851.23
2017-11-08T09:19:53.973Z,851.23
2017-11-08T09:20:53.850Z,851.17
2017-11-08T09:21:53.727Z,851.18
2017-11-08T09:22:53.601Z,851.16
2017-11-08T09:23:53.478Z,851.19
2017-11-08T09:24:53.354Z,851.21
2017-11-08T09:25:53.227Z,851.19
2017-11-08T09:26:53.105Z,851.20
2017-11-08T09:27:52.979Z,851.19
2017-11-08T09:28:52.861Z,851.19
2017-11-08T09:29:52.730Z,851.20
2017-11-08T09:30:52.608Z,851.19
2017-11-08T09:31:52.483Z,851.17
2017-11-08T09:32:52.356Z,851.17
2017-11-08T09:33:52.230Z,851.17
2017-11-08T09:34:52.106Z,851.18
2017-11-08T09:35:51.987Z,851.20
2017-11-08T09:36:51.860Z,851.25
2017-11-08T09:37:51.735Z,851.27
2017-11-08T09:38:51.609Z,851.27
2017-11-08T09:39:51.484Z,851.24
2017-11-08T09:40:51.360Z,851.26
2017-11-08T09:41:51.233Z,851.25
2017-11-08T09:42:51.107Z,851.25
2017-11-08T09:43:50.985Z,851.26
2017-11-08T09:44:51.106Z,851.27
2017-11-08T09:45:50.735Z,851.25
2017-11-08T09:46:50.609Z,851.26
2017-11-08T09:47:50.484Z,851.22
2017-11-08T09:48:50.360Z,851.26
2017-11-08T09:49:50.235Z,851.25
2017-11-08T09:50:50.110Z,851.25
2017-11-08T09:51:49.984Z,851.25
2017-11-08T09:52:49.862Z,851.28
2017-11-08T09:53:49.763Z,851.29
2017-11-08T09:54:49.617Z,851.30
2017-11-08T09:55:49.488Z,851.32
2017-11-08T09:56:51.022Z,851.29
2017-11-08T09:57:49.233Z,851.30
2017-11-08T09:58:49.112Z,851.31
2017-11-08T09:59:48.985Z,851.31
2017-11-08T10:00:48.861Z,851.34
2017-11-08T10:01:48.737Z,851.33
2017-11-08T10:02:48.611Z,851.33
2017-11-08T10:03:48.485Z,851.31
2017-11-08T10:04:48.361Z,851.31
2017-11-08T10:05:48.232Z,851.33
2017-11-08T10:06:48.110Z,851.33
2017-11-08T10:07:47.985Z,851.34
2017-11-08T10:08:47.858Z,851.32
2017-11-08T10:09:47.755Z,851.31
2017-11-08T10:10:47.624Z,851.34
2017-11-08T10:11:47.483Z,851.37
2017-11-08T10:12:47.358Z,851.31
2017-11-08T10:13:47.228Z,851.31
2017-11-08T10:14:47.105Z,851.31
2017-11-08T10:15:46.977Z,851.29
2017-11-08T10:16:46.873Z,851.30
2017-11-08T10:17:46.729Z,851.31
2017-11-08T10:18:46.601Z,851.31
2017-11-08T10:19:46.477Z,851.30
2017-11-08T10:20:46.352Z,851.31
2017-11-08T10:21:46.238Z,851.34
2017-11-08T10:22:46.099Z,851.30
2017-11-08T10:23:45.974Z,851.28
2017-11-08T10:24:45.847Z,851.28
2017-11-08T10:25:45.739Z,851.25
2017-11-08T10:26:45.596Z,851.25
2017-11-08T10:27:45.471Z,851.21
2017-11-08T10:28:45.346Z,851.22
2017-11-08T10:29:45.217Z,851.21
2017-11-08T10:30:45.090Z,851.19
2017-11-08T10:31:44.966Z,851.22
2017-11-08T10:32:44.839Z,851.22
2017-11-08T10:33:44.712Z,851.19
2017-11-08T10:34:44.585Z,851.23
2017-11-08T10:35:44.493Z,851.20
2017-11-08T10:36:44.334Z,851.20
2017-11-08T10:37:44.211Z,851.23
2017-11-08T10:38:44.084Z,851.22
2017-11-08T10:39:43.955Z,851.23
2017-11-08T10:40:43.830Z,851.23
2017-11-08T10:41:43.709Z,851.20
2017-11-08T10:42:43.542Z,851.23
2017-11-08T10:43:43.420Z,851.20
2017-11-08T10:44:43.291Z,851.18
2017-11-08T10:45:43.162Z,851.18
2017-11-08T10:46:43.036Z,851.14
2017-11-08T10:47:42.911Z,851.13
2017-11-08T10:48:42.785Z,851.10
2017-11-08T10:49:42.662Z,851.12
2017-11-08T10:50:42.532Z,851.14
2017-11-08T10:51:42.404Z,851.09
2017-11-08T10:52:42.280Z,851.06
2017-11-08T10:53:42.152Z,851.07
2017-11-08T10:54:42.028Z,851.04
2017-11-08T10:55:41.901Z,851.07
2017-11-08T10:56:41.773Z,851.08
2017-11-08T10:57:41.648Z,851.09
2017-11-08T10:58:41.520Z,851.07
2017-11-08T10:59:41.395Z,851.05
2017-11-08T11:00:41.268Z,851.06
2017-11-08T11:01:41.141Z,851.06
2017-11-08T11:02:41.015Z,851.05
2017-11-08T11:03:40.891Z,851.03
2017-11-08T11:04:40.764Z,851.05
2017-11-08T11:05:40.637Z,851.05
2017-11-08T11:06:40.512Z,851.02
2017-11-08T11:07:40.386Z,851.03
2017-11-08T11:08:40.267Z,851.02
2017-11-08T11:09:40.135Z,851.04
2017-11-08T11:10:40.009Z,851.01
2017-11-08T11:11:39.895Z,851.04
2017-11-08T11:12:39.755Z,851.00
2017-11-08T11:13:39.632Z,851.02
2017-11-08T11:14:39.506Z,851.04
2017-11-08T11:15:39.375Z,851.05
2017-11-08T11:16:39.251Z,851.08
2017-11-08T11:17:39.126Z,851.04
2017-11-08T11:18:39.000Z,851.05
2017-11-08T11:19:38.879Z,851.05
2017-11-08T11:20:38.755Z,851.03
2017-11-08T11:21:38.622Z,851.06
2017-11-08T11:22:38.495Z,851.08
2017-11-08T11:23:38.369Z,851.07
2017-11-08T11:24:38.251Z,851.04
2017-11-08T11:25:38.121Z,851.08
2017-11-08T11:26:37.992Z,851.07
2017-11-08T11:27:37.868Z,851.07
2017-11-08T11:28:37.745Z,851.06
2017-11-08T11:29:37.612Z,851.01
2017-11-08T11:30:37.488Z,851.04
2017-11-08T11:31:37.362Z,851.04
2017-11-08T11:32:37.237Z,851.01
2017-11-08T11:33:37.109Z,850.97
2017-11-08T11:34:36.983Z,850.97
2017-11-08T11:35:36.858Z,850.98
2017-11-08T11:36:36.732Z,850.95
2017-11-08T11:37:36.604Z,850.94
2017-11-08T11:38:36.485Z,850.96
2017-11-08T11:39:36.353Z,850.94
2017-11-08T11:40:36.228Z,850.91
2017-11-08T11:41:37.096Z,850.95
2017-11-08T11:42:35.975Z,850.95
2017-11-08T11:43:35.858Z,850.95
2017-11-08T11:44:35.722Z,850.94
2017-11-08T11:45:35.598Z,850.94
2017-11-08T11:46:35.470Z,850.97
2017-11-08T11:47:35.343Z,850.97
2017-11-08T11:48:35.222Z,850.99
2017-11-08T11:49:35.090Z,851.01
2017-11-08T11:50:34.965Z,850.98
2017-11-08T11:51:34.838Z,850.99
2017-11-08T11:52:34.714Z,850.96
2017-11-08T11:53:34.586Z,850.99
2017-11-08T11:54:34.466Z,851.00
2017-11-08T11:55:34.334Z,851.03
2017-11-08T11:56:34.208Z,851.01
2017-11-08T11:57:34.083Z,851.04
2017-11-08T11:58:33.955Z,851.06
2017-11-08T11:59:35.525Z,851.06
2017-11-08T12:00:33.704Z,851.08
2017-11-08T12:01:33.589Z,851.09
2017-11-08T12:02:33.452Z,851.10
2017-11-08T12:03:33.335Z,851.05
2017-11-08T12:04:33.199Z,851.03
2017-11-08T12:05:33.070Z,851.03
2017-11-08T12:06:32.948Z,851.03
2017-11-08T12:07:32.818Z,851.06
2017-11-08T12:08:32.691Z,851.07
2017-11-08T12:09:32.567Z,851.06
2017-11-08T12:10:33.106Z,851.05
2017-11-08T12:11:32.314Z,851.03
2017-11-08T12:12:32.187Z,851.00
2017-11-08T12:13:32.066Z,851.02
2017-11-08T12:14:31.935Z,851.02
2017-11-08T12:15:31.808Z,851.03
2017-11-08T12:16:31.683Z,850.99
2017-11-08T12:17:31.558Z,851.00
2017-11-08T12:18:31.429Z,851.00
2017-11-08T12:19:31.303Z,851.00
2017-11-08T12:20:31.176Z,851.00
2017-11-08T12:21:31.056Z,850.98
2017-11-08T12:22:30.923Z,850.96
2017-11-08T12:23:30.797Z,850.96
2017-11-08T12:24:30.718Z,850.98
2017-11-08T12:25:30.543Z,850.98
2017-11-08T12:26:30.418Z,850.98